sensor_id;sensor_type;location;lat;lon;timestamp;P1;durP1;ratioP1;P2;durP2;ratioP2
25824;SDS011;13658;44.534;18.694;2024-01-10T00:01:59;224.18;;;82.57;;
25824;SDS011;13658;44.534;18.694;2024-01-10T00:04:25;186.57;;;68.90;;
25824;SDS011;13658;44.534;18.694;2024-01-10T00:06:51;201.80;;;70.28;;
25824;SDS011;13658;44.534;18.694;2024-01-10T00:09:17;188.93;;;69.50;;
25824;SDS011;13658;44.534;18.694;2024-01-10T00:11:43;197.40;;;70.45;;
25824;SDS011;13658;44.534;18.694;2024-01-10T00:14:09;198.77;;;68.60;;
25824;SDS011;13658;44.534;18.694;2024-01-10T00:16:35;169.80;;;64.82;;
25824;SDS011;13658;44.534;18.694;2024-01-10T00:19:01;139.50;;;50.10;;
25824;SDS011;13658;44.534;18.694;2024-01-10T00:21:27;133.52;;;49.35;;
25824;SDS011;13658;44.534;18.694;2024-01-10T00:23:54;146.90;;;51.80;;
25824;SDS011;13658;44.534;18.694;2024-01-10T00:26:20;138.73;;;50.42;;
25824;SDS011;13658;44.534;18.694;2024-01-10T00:28:46;141.70;;;50.45;;
25824;SDS011;13658;44.534;18.694;2024-01-10T00:31:12;134.48;;;48.38;;
25824;SDS011;13658;44.534;18.694;2024-01-10T00:33:39;147.10;;;53.47;;
25824;SDS011;13658;44.534;18.694;2024-01-10T00:36:05;118.60;;;45.33;;
25824;SDS011;13658;44.534;18.694;2024-01-10T00:38:32;124.40;;;48.25;;
25824;SDS011;13658;44.534;18.694;2024-01-10T00:40:58;127.10;;;49.45;;
25824;SDS011;13658;44.534;18.694;2024-01-10T00:43:24;125.47;;;46.35;;
25824;SDS011;13658;44.534;18.694;2024-01-10T00:45:50;121.65;;;44.67;;
25824;SDS011;13658;44.534;18.694;2024-01-10T00:48:16;142.43;;;54.63;;
25824;SDS011;13658;44.534;18.694;2024-01-10T00:50:45;125.75;;;50.40;;
25824;SDS011;13658;44.534;18.694;2024-01-10T00:53:11;128.82;;;50.15;;
25824;SDS011;13658;44.534;18.694;2024-01-10T00:55:38;125.03;;;48.10;;
25824;SDS011;13658;44.534;18.694;2024-01-10T00:58:04;118.85;;;46.92;;
25824;SDS011;13658;44.534;18.694;2024-01-10T01:00:31;112.53;;;45.97;;
25824;SDS011;13658;44.534;18.694;2024-01-10T01:02:57;118.35;;;45.60;;
25824;SDS011;13658;44.534;18.694;2024-01-10T01:05:23;114.90;;;44.65;;
25824;SDS011;13658;44.534;18.694;2024-01-10T01:07:49;105.50;;;38.83;;
25824;SDS011;13658;44.534;18.694;2024-01-10T01:10:15;115.25;;;42.38;;
25824;SDS011;13658;44.534;18.694;2024-01-10T01:12:41;107.15;;;41.55;;
25824;SDS011;13658;44.534;18.694;2024-01-10T01:15:07;94.97;;;37.30;;
25824;SDS011;13658;44.534;18.694;2024-01-10T01:17:33;103.35;;;38.47;;
25824;SDS011;13658;44.534;18.694;2024-01-10T01:19:59;101.28;;;38.42;;
25824;SDS011;13658;44.534;18.694;2024-01-10T01:22:25;97.05;;;38.00;;
25824;SDS011;13658;44.534;18.694;2024-01-10T01:24:51;103.13;;;41.17;;
25824;SDS011;13658;44.534;18.694;2024-01-10T01:27:17;93.20;;;39.05;;
25824;SDS011;13658;44.534;18.694;2024-01-10T01:29:43;90.00;;;36.20;;
25824;SDS011;13658;44.534;18.694;2024-01-10T01:32:09;92.82;;;38.35;;
25824;SDS011;13658;44.534;18.694;2024-01-10T01:34:35;101.97;;;41.10;;
25824;SDS011;13658;44.534;18.694;2024-01-10T01:37:01;97.43;;;38.25;;
25824;SDS011;13658;44.534;18.694;2024-01-10T01:39:27;98.93;;;40.50;;
25824;SDS011;13658;44.534;18.694;2024-01-10T01:41:53;108.38;;;40.40;;
25824;SDS011;13658;44.534;18.694;2024-01-10T01:44:19;96.82;;;36.53;;
25824;SDS011;13658;44.534;18.694;2024-01-10T01:46:45;94.40;;;37.03;;
25824;SDS011;13658;44.534;18.694;2024-01-10T01:49:12;101.72;;;38.92;;
25824;SDS011;13658;44.534;18.694;2024-01-10T01:51:39;101.40;;;40.15;;
25824;SDS011;13658;44.534;18.694;2024-01-10T01:54:06;101.03;;;39.13;;
25824;SDS011;13658;44.534;18.694;2024-01-10T01:56:38;95.57;;;38.78;;
25824;SDS011;13658;44.534;18.694;2024-01-10T01:59:04;97.45;;;37.10;;
25824;SDS011;13658;44.534;18.694;2024-01-10T02:01:30;80.07;;;33.50;;
25824;SDS011;13658;44.534;18.694;2024-01-10T02:03:56;71.93;;;29.90;;
25824;SDS011;13658;44.534;18.694;2024-01-10T02:06:23;71.82;;;28.48;;
25824;SDS011;13658;44.534;18.694;2024-01-10T02:08:49;62.80;;;25.45;;
25824;SDS011;13658;44.534;18.694;2024-01-10T02:11:17;74.43;;;30.42;;
25824;SDS011;13658;44.534;18.694;2024-01-10T02:13:44;75.85;;;30.70;;
25824;SDS011;13658;44.534;18.694;2024-01-10T02:16:10;80.82;;;32.92;;
25824;SDS011;13658;44.534;18.694;2024-01-10T02:18:37;86.05;;;35.75;;
25824;SDS011;13658;44.534;18.694;2024-01-10T02:21:03;86.20;;;34.75;;
25824;SDS011;13658;44.534;18.694;2024-01-10T02:23:29;92.32;;;37.38;;
25824;SDS011;13658;44.534;18.694;2024-01-10T02:25:55;93.15;;;36.03;;
25824;SDS011;13658;44.534;18.694;2024-01-10T02:28:21;89.32;;;35.97;;
25824;SDS011;13658;44.534;18.694;2024-01-10T02:30:51;84.32;;;33.63;;
25824;SDS011;13658;44.534;18.694;2024-01-10T02:33:19;73.03;;;30.98;;
25824;SDS011;13658;44.534;18.694;2024-01-10T02:35:45;84.00;;;32.40;;
25824;SDS011;13658;44.534;18.694;2024-01-10T02:38:11;79.65;;;30.90;;
25824;SDS011;13658;44.534;18.694;2024-01-10T02:40:37;63.47;;;26.95;;
25824;SDS011;13658;44.534;18.694;2024-01-10T02:43:03;65.75;;;26.58;;
25824;SDS011;13658;44.534;18.694;2024-01-10T02:45:29;76.47;;;27.63;;
25824;SDS011;13658;44.534;18.694;2024-01-10T02:47:55;60.50;;;25.88;;
25824;SDS011;13658;44.534;18.694;2024-01-10T02:50:21;68.18;;;26.60;;
25824;SDS011;13658;44.534;18.694;2024-01-10T02:52:47;73.72;;;30.20;;
25824;SDS011;13658;44.534;18.694;2024-01-10T02:55:12;60.28;;;25.65;;
25824;SDS011;13658;44.534;18.694;2024-01-10T02:57:38;69.82;;;27.02;;
25824;SDS011;13658;44.534;18.694;2024-01-10T03:00:05;69.57;;;25.38;;
25824;SDS011;13658;44.534;18.694;2024-01-10T03:02:31;61.88;;;25.13;;
25824;SDS011;13658;44.534;18.694;2024-01-10T03:04:57;60.92;;;24.90;;
25824;SDS011;13658;44.534;18.694;2024-01-10T03:07:23;58.58;;;23.42;;
25824;SDS011;13658;44.534;18.694;2024-01-10T03:09:50;58.13;;;21.20;;
25824;SDS011;13658;44.534;18.694;2024-01-10T03:12:16;58.60;;;24.00;;
25824;SDS011;13658;44.534;18.694;2024-01-10T03:14:42;55.72;;;23.67;;
25824;SDS011;13658;44.534;18.694;2024-01-10T03:17:08;53.70;;;22.88;;
25824;SDS011;13658;44.534;18.694;2024-01-10T03:19:34;52.05;;;21.48;;
25824;SDS011;13658;44.534;18.694;2024-01-10T03:22:02;68.70;;;27.33;;
25824;SDS011;13658;44.534;18.694;2024-01-10T03:24:28;57.10;;;24.42;;
25824;SDS011;13658;44.534;18.694;2024-01-10T03:26:54;65.32;;;26.85;;
25824;SDS011;13658;44.534;18.694;2024-01-10T03:29:20;67.03;;;27.83;;
25824;SDS011;13658;44.534;18.694;2024-01-10T03:31:46;70.45;;;26.95;;
25824;SDS011;13658;44.534;18.694;2024-01-10T03:34:12;73.82;;;30.30;;
25824;SDS011;13658;44.534;18.694;2024-01-10T03:36:38;69.30;;;29.35;;
25824;SDS011;13658;44.534;18.694;2024-01-10T03:39:04;71.63;;;30.52;;
25824;SDS011;13658;44.534;18.694;2024-01-10T03:41:30;66.35;;;29.75;;
25824;SDS011;13658;44.534;18.694;2024-01-10T03:43:55;66.28;;;27.88;;
25824;SDS011;13658;44.534;18.694;2024-01-10T03:46:21;61.45;;;26.85;;
25824;SDS011;13658;44.534;18.694;2024-01-10T03:48:47;57.00;;;24.77;;
25824;SDS011;13658;44.534;18.694;2024-01-10T03:51:14;55.05;;;23.23;;
25824;SDS011;13658;44.534;18.694;2024-01-10T03:53:41;63.33;;;23.63;;
25824;SDS011;13658;44.534;18.694;2024-01-10T03:56:07;63.17;;;24.63;;
25824;SDS011;13658;44.534;18.694;2024-01-10T03:58:33;51.40;;;23.15;;
25824;SDS011;13658;44.534;18.694;2024-01-10T04:00:59;63.13;;;23.40;;
25824;SDS011;13658;44.534;18.694;2024-01-10T04:03:29;63.05;;;25.08;;
25824;SDS011;13658;44.534;18.694;2024-01-10T04:05:54;69.70;;;28.25;;
25824;SDS011;13658;44.534;18.694;2024-01-10T04:08:20;65.60;;;28.52;;
25824;SDS011;13658;44.534;18.694;2024-01-10T04:10:46;66.82;;;26.95;;
25824;SDS011;13658;44.534;18.694;2024-01-10T04:13:12;65.72;;;26.67;;
25824;SDS011;13658;44.534;18.694;2024-01-10T04:15:38;75.00;;;29.52;;
25824;SDS011;13658;44.534;18.694;2024-01-10T04:18:04;73.57;;;28.40;;
25824;SDS011;13658;44.534;18.694;2024-01-10T04:20:30;78.20;;;29.25;;
25824;SDS011;13658;44.534;18.694;2024-01-10T04:22:56;76.40;;;31.98;;
25824;SDS011;13658;44.534;18.694;2024-01-10T04:25:22;73.00;;;27.88;;
25824;SDS011;13658;44.534;18.694;2024-01-10T04:27:48;74.53;;;31.25;;
25824;SDS011;13658;44.534;18.694;2024-01-10T04:30:15;75.85;;;33.75;;
25824;SDS011;13658;44.534;18.694;2024-01-10T04:32:41;80.88;;;32.40;;
25824;SDS011;13658;44.534;18.694;2024-01-10T04:35:07;80.53;;;35.00;;
25824;SDS011;13658;44.534;18.694;2024-01-10T04:37:33;79.40;;;33.72;;
25824;SDS011;13658;44.534;18.694;2024-01-10T04:39:59;85.32;;;35.28;;
25824;SDS011;13658;44.534;18.694;2024-01-10T04:42:25;80.13;;;32.83;;
25824;SDS011;13658;44.534;18.694;2024-01-10T04:44:51;82.28;;;32.97;;
25824;SDS011;13658;44.534;18.694;2024-01-10T04:47:17;82.13;;;34.33;;
25824;SDS011;13658;44.534;18.694;2024-01-10T04:49:43;87.82;;;35.65;;
25824;SDS011;13658;44.534;18.694;2024-01-10T04:52:09;81.10;;;33.28;;
25824;SDS011;13658;44.534;18.694;2024-01-10T04:54:35;75.75;;;30.33;;
25824;SDS011;13658;44.534;18.694;2024-01-10T04:57:01;72.80;;;32.30;;
25824;SDS011;13658;44.534;18.694;2024-01-10T04:59:27;97.30;;;38.00;;
25824;SDS011;13658;44.534;18.694;2024-01-10T05:01:53;79.13;;;31.95;;
25824;SDS011;13658;44.534;18.694;2024-01-10T05:04:19;86.00;;;34.75;;
25824;SDS011;13658;44.534;18.694;2024-01-10T05:06:45;93.43;;;36.13;;
25824;SDS011;13658;44.534;18.694;2024-01-10T05:09:11;72.70;;;31.40;;
25824;SDS011;13658;44.534;18.694;2024-01-10T05:11:37;82.63;;;33.80;;
25824;SDS011;13658;44.534;18.694;2024-01-10T05:14:03;75.78;;;29.67;;
25824;SDS011;13658;44.534;18.694;2024-01-10T05:16:29;80.00;;;31.80;;
25824;SDS011;13658;44.534;18.694;2024-01-10T05:18:56;80.60;;;35.22;;
25824;SDS011;13658;44.534;18.694;2024-01-10T05:21:26;84.47;;;33.35;;
25824;SDS011;13658;44.534;18.694;2024-01-10T05:23:52;85.18;;;33.88;;
25824;SDS011;13658;44.534;18.694;2024-01-10T05:26:18;85.90;;;33.67;;
25824;SDS011;13658;44.534;18.694;2024-01-10T05:28:45;87.50;;;37.08;;
25824;SDS011;13658;44.534;18.694;2024-01-10T05:31:11;90.88;;;36.85;;
25824;SDS011;13658;44.534;18.694;2024-01-10T05:33:37;72.07;;;29.20;;
25824;SDS011;13658;44.534;18.694;2024-01-10T05:36:03;87.00;;;34.53;;
25824;SDS011;13658;44.534;18.694;2024-01-10T05:38:28;76.28;;;28.40;;
25824;SDS011;13658;44.534;18.694;2024-01-10T05:40:54;67.43;;;27.52;;
25824;SDS011;13658;44.534;18.694;2024-01-10T05:43:20;94.28;;;36.95;;
25824;SDS011;13658;44.534;18.694;2024-01-10T05:45:47;92.85;;;36.47;;
25824;SDS011;13658;44.534;18.694;2024-01-10T05:48:13;73.05;;;27.58;;
25824;SDS011;13658;44.534;18.694;2024-01-10T05:50:39;107.93;;;40.35;;
25824;SDS011;13658;44.534;18.694;2024-01-10T05:53:05;107.63;;;41.05;;
25824;SDS011;13658;44.534;18.694;2024-01-10T05:55:31;130.02;;;47.55;;
25824;SDS011;13658;44.534;18.694;2024-01-10T05:57:56;116.03;;;41.95;;
25824;SDS011;13658;44.534;18.694;2024-01-10T06:00:22;156.23;;;55.28;;
25824;SDS011;13658;44.534;18.694;2024-01-10T06:02:48;136.25;;;50.78;;
25824;SDS011;13658;44.534;18.694;2024-01-10T06:05:14;122.22;;;43.38;;
25824;SDS011;13658;44.534;18.694;2024-01-10T06:07:40;108.35;;;43.67;;
25824;SDS011;13658;44.534;18.694;2024-01-10T06:10:06;155.00;;;58.15;;
25824;SDS011;13658;44.534;18.694;2024-01-10T06:12:32;140.82;;;51.22;;
25824;SDS011;13658;44.534;18.694;2024-01-10T06:14:58;182.98;;;64.80;;
25824;SDS011;13658;44.534;18.694;2024-01-10T06:17:24;168.65;;;59.88;;
25824;SDS011;13658;44.534;18.694;2024-01-10T06:19:50;158.13;;;61.10;;
25824;SDS011;13658;44.534;18.694;2024-01-10T06:22:17;179.77;;;70.63;;
25824;SDS011;13658;44.534;18.694;2024-01-10T06:24:43;186.98;;;70.75;;
25824;SDS011;13658;44.534;18.694;2024-01-10T06:27:09;188.45;;;67.60;;
25824;SDS011;13658;44.534;18.694;2024-01-10T06:29:36;190.40;;;70.00;;
25824;SDS011;13658;44.534;18.694;2024-01-10T06:32:02;180.95;;;62.08;;
25824;SDS011;13658;44.534;18.694;2024-01-10T06:34:31;167.75;;;58.25;;
25824;SDS011;13658;44.534;18.694;2024-01-10T06:36:58;163.65;;;58.67;;
25824;SDS011;13658;44.534;18.694;2024-01-10T06:39:24;162.18;;;56.20;;
25824;SDS011;13658;44.534;18.694;2024-01-10T06:41:50;160.30;;;55.90;;
25824;SDS011;13658;44.534;18.694;2024-01-10T06:44:16;158.77;;;55.53;;
25824;SDS011;13658;44.534;18.694;2024-01-10T06:46:43;158.90;;;55.63;;
25824;SDS011;13658;44.534;18.694;2024-01-10T06:49:09;165.65;;;62.25;;
25824;SDS011;13658;44.534;18.694;2024-01-10T06:51:35;153.68;;;60.80;;
25824;SDS011;13658;44.534;18.694;2024-01-10T06:54:01;177.20;;;63.65;;
25824;SDS011;13658;44.534;18.694;2024-01-10T06:56:31;168.13;;;66.47;;
25824;SDS011;13658;44.534;18.694;2024-01-10T06:58:57;163.00;;;60.92;;
25824;SDS011;13658;44.534;18.694;2024-01-10T07:01:24;194.88;;;73.45;;
25824;SDS011;13658;44.534;18.694;2024-01-10T07:03:51;225.40;;;78.07;;
25824;SDS011;13658;44.534;18.694;2024-01-10T07:06:18;212.45;;;76.47;;
25824;SDS011;13658;44.534;18.694;2024-01-10T07:08:44;224.35;;;77.35;;
25824;SDS011;13658;44.534;18.694;2024-01-10T07:11:10;201.75;;;73.88;;
25824;SDS011;13658;44.534;18.694;2024-01-10T07:13:36;240.98;;;91.53;;
25824;SDS011;13658;44.534;18.694;2024-01-10T07:16:02;255.15;;;97.57;;
25824;SDS011;13658;44.534;18.694;2024-01-10T07:18:29;269.20;;;105.65;;
25824;SDS011;13658;44.534;18.694;2024-01-10T07:20:56;271.52;;;104.47;;
25824;SDS011;13658;44.534;18.694;2024-01-10T07:23:22;252.20;;;97.03;;
25824;SDS011;13658;44.534;18.694;2024-01-10T07:25:51;245.70;;;91.93;;
25824;SDS011;13658;44.534;18.694;2024-01-10T07:28:17;230.15;;;87.88;;
25824;SDS011;13658;44.534;18.694;2024-01-10T07:30:47;230.93;;;89.32;;
25824;SDS011;13658;44.534;18.694;2024-01-10T07:33:13;242.68;;;92.55;;
25824;SDS011;13658;44.534;18.694;2024-01-10T07:35:39;246.88;;;96.07;;
25824;SDS011;13658;44.534;18.694;2024-01-10T07:38:05;250.77;;;99.93;;
25824;SDS011;13658;44.534;18.694;2024-01-10T07:40:34;245.23;;;98.80;;
25824;SDS011;13658;44.534;18.694;2024-01-10T07:43:01;252.75;;;103.88;;
25824;SDS011;13658;44.534;18.694;2024-01-10T07:45:27;263.95;;;105.13;;
25824;SDS011;13658;44.534;18.694;2024-01-10T07:47:54;263.73;;;112.32;;
25824;SDS011;13658;44.534;18.694;2024-01-10T07:50:20;273.98;;;113.90;;
25824;SDS011;13658;44.534;18.694;2024-01-10T07:52:46;242.30;;;98.15;;
25824;SDS011;13658;44.534;18.694;2024-01-10T07:55:12;255.82;;;106.43;;
25824;SDS011;13658;44.534;18.694;2024-01-10T07:57:38;297.13;;;121.97;;
25824;SDS011;13658;44.534;18.694;2024-01-10T08:00:05;302.17;;;122.53;;
25824;SDS011;13658;44.534;18.694;2024-01-10T08:02:35;301.08;;;122.97;;
25824;SDS011;13658;44.534;18.694;2024-01-10T08:05:05;279.65;;;115.88;;
25824;SDS011;13658;44.534;18.694;2024-01-10T08:07:34;224.27;;;100.03;;
25824;SDS011;13658;44.534;18.694;2024-01-10T08:10:08;223.18;;;99.85;;
25824;SDS011;13658;44.534;18.694;2024-01-10T08:12:35;271.60;;;121.65;;
25824;SDS011;13658;44.534;18.694;2024-01-10T08:15:02;236.65;;;108.82;;
25824;SDS011;13658;44.534;18.694;2024-01-10T08:17:28;181.40;;;92.20;;
25824;SDS011;13658;44.534;18.694;2024-01-10T08:19:54;175.82;;;90.45;;
25824;SDS011;13658;44.534;18.694;2024-01-10T08:22:20;181.80;;;94.38;;
25824;SDS011;13658;44.534;18.694;2024-01-10T08:24:46;183.75;;;98.00;;
25824;SDS011;13658;44.534;18.694;2024-01-10T08:27:12;224.77;;;123.40;;
25824;SDS011;13658;44.534;18.694;2024-01-10T08:29:38;227.18;;;122.50;;
25824;SDS011;13658;44.534;18.694;2024-01-10T08:32:04;219.70;;;118.70;;
25824;SDS011;13658;44.534;18.694;2024-01-10T08:34:30;213.70;;;119.50;;
25824;SDS011;13658;44.534;18.694;2024-01-10T08:36:57;227.48;;;128.35;;
25824;SDS011;13658;44.534;18.694;2024-01-10T08:39:23;228.30;;;125.28;;
25824;SDS011;13658;44.534;18.694;2024-01-10T08:41:51;221.27;;;126.53;;
25824;SDS011;13658;44.534;18.694;2024-01-10T08:44:18;222.52;;;125.00;;
25824;SDS011;13658;44.534;18.694;2024-01-10T08:46:44;230.45;;;129.40;;
25824;SDS011;13658;44.534;18.694;2024-01-10T08:49:10;219.75;;;129.15;;
25824;SDS011;13658;44.534;18.694;2024-01-10T08:51:36;193.73;;;113.30;;
25824;SDS011;13658;44.534;18.694;2024-01-10T08:54:01;213.50;;;122.78;;
25824;SDS011;13658;44.534;18.694;2024-01-10T08:56:29;157.02;;;91.53;;
25824;SDS011;13658;44.534;18.694;2024-01-10T08:58:54;101.68;;;58.88;;
25824;SDS011;13658;44.534;18.694;2024-01-10T09:01:20;124.53;;;73.03;;
25824;SDS011;13658;44.534;18.694;2024-01-10T09:03:47;161.32;;;92.90;;
25824;SDS011;13658;44.534;18.694;2024-01-10T09:06:14;152.60;;;88.95;;
25824;SDS011;13658;44.534;18.694;2024-01-10T09:08:42;131.98;;;76.10;;
25824;SDS011;13658;44.534;18.694;2024-01-10T09:11:08;141.55;;;82.20;;
25824;SDS011;13658;44.534;18.694;2024-01-10T09:13:34;151.57;;;86.63;;
25824;SDS011;13658;44.534;18.694;2024-01-10T09:16:03;158.98;;;83.72;;
25824;SDS011;13658;44.534;18.694;2024-01-10T09:18:29;185.13;;;99.38;;
25824;SDS011;13658;44.534;18.694;2024-01-10T09:20:55;172.57;;;96.30;;
25824;SDS011;13658;44.534;18.694;2024-01-10T09:23:21;176.38;;;94.20;;
25824;SDS011;13658;44.534;18.694;2024-01-10T09:25:47;162.27;;;90.28;;
25824;SDS011;13658;44.534;18.694;2024-01-10T09:28:13;159.55;;;89.53;;
25824;SDS011;13658;44.534;18.694;2024-01-10T09:30:39;173.32;;;94.38;;
25824;SDS011;13658;44.534;18.694;2024-01-10T09:33:05;170.27;;;94.75;;
25824;SDS011;13658;44.534;18.694;2024-01-10T09:35:31;166.73;;;88.75;;
25824;SDS011;13658;44.534;18.694;2024-01-10T09:37:57;132.80;;;69.85;;
25824;SDS011;13658;44.534;18.694;2024-01-10T09:40:23;107.68;;;58.15;;
25824;SDS011;13658;44.534;18.694;2024-01-10T09:42:52;111.88;;;57.90;;
25824;SDS011;13658;44.534;18.694;2024-01-10T09:45:21;107.50;;;57.88;;
25824;SDS011;13658;44.534;18.694;2024-01-10T09:47:51;109.72;;;57.65;;
25824;SDS011;13658;44.534;18.694;2024-01-10T09:50:20;125.95;;;62.88;;
25824;SDS011;13658;44.534;18.694;2024-01-10T09:55:22;116.07;;;60.22;;
25824;SDS011;13658;44.534;18.694;2024-01-10T09:57:51;130.65;;;68.80;;
25824;SDS011;13658;44.534;18.694;2024-01-10T10:00:26;134.73;;;65.70;;
25824;SDS011;13658;44.534;18.694;2024-01-10T10:02:53;140.43;;;68.82;;
25824;SDS011;13658;44.534;18.694;2024-01-10T10:05:21;132.35;;;67.07;;
25824;SDS011;13658;44.534;18.694;2024-01-10T10:07:49;132.00;;;64.53;;
25824;SDS011;13658;44.534;18.694;2024-01-10T10:10:16;137.95;;;70.95;;
25824;SDS011;13658;44.534;18.694;2024-01-10T10:12:50;132.32;;;69.90;;
25824;SDS011;13658;44.534;18.694;2024-01-10T10:15:20;132.55;;;69.47;;
25824;SDS011;13658;44.534;18.694;2024-01-10T10:17:48;128.98;;;66.47;;
25824;SDS011;13658;44.534;18.694;2024-01-10T10:20:21;139.60;;;71.32;;
25824;SDS011;13658;44.534;18.694;2024-01-10T10:25:26;124.95;;;64.68;;
25824;SDS011;13658;44.534;18.694;2024-01-10T10:28:13;139.00;;;70.63;;
25824;SDS011;13658;44.534;18.694;2024-01-10T10:30:40;126.53;;;64.40;;
25824;SDS011;13658;44.534;18.694;2024-01-10T10:33:09;128.18;;;66.60;;
25824;SDS011;13658;44.534;18.694;2024-01-10T10:35:38;140.43;;;72.45;;
25824;SDS011;13658;44.534;18.694;2024-01-10T10:38:04;146.07;;;77.63;;
25824;SDS011;13658;44.534;18.694;2024-01-10T10:40:33;152.70;;;78.90;;
25824;SDS011;13658;44.534;18.694;2024-01-10T10:43:10;158.07;;;78.60;;
25824;SDS011;13658;44.534;18.694;2024-01-10T10:45:46;146.13;;;73.95;;
25824;SDS011;13658;44.534;18.694;2024-01-10T10:48:17;148.13;;;73.00;;
25824;SDS011;13658;44.534;18.694;2024-01-10T10:50:54;150.43;;;77.32;;
25824;SDS011;13658;44.534;18.694;2024-01-10T10:53:36;155.68;;;75.57;;
25824;SDS011;13658;44.534;18.694;2024-01-10T10:56:06;151.33;;;76.00;;
25824;SDS011;13658;44.534;18.694;2024-01-10T10:58:37;151.00;;;76.20;;
25824;SDS011;13658;44.534;18.694;2024-01-10T11:03:45;143.85;;;69.35;;
25824;SDS011;13658;44.534;18.694;2024-01-10T11:06:12;138.70;;;70.30;;
25824;SDS011;13658;44.534;18.694;2024-01-10T11:08:49;144.88;;;73.43;;
25824;SDS011;13658;44.534;18.694;2024-01-10T11:16:56;152.85;;;73.25;;
25824;SDS011;13658;44.534;18.694;2024-01-10T11:25:03;141.77;;;66.10;;
25824;SDS011;13658;44.534;18.694;2024-01-10T11:27:30;129.98;;;61.33;;
25824;SDS011;13658;44.534;18.694;2024-01-10T11:29:56;136.75;;;61.45;;
25824;SDS011;13658;44.534;18.694;2024-01-10T11:32:24;142.40;;;64.10;;
25824;SDS011;13658;44.534;18.694;2024-01-10T11:37:19;137.18;;;56.90;;
25824;SDS011;13658;44.534;18.694;2024-01-10T11:39:45;147.88;;;63.20;;
25824;SDS011;13658;44.534;18.694;2024-01-10T11:42:11;133.15;;;58.40;;
25824;SDS011;13658;44.534;18.694;2024-01-10T11:44:46;140.30;;;62.17;;
25824;SDS011;13658;44.534;18.694;2024-01-10T11:47:15;124.57;;;56.50;;
25824;SDS011;13658;44.534;18.694;2024-01-10T11:49:56;133.55;;;58.45;;
25824;SDS011;13658;44.534;18.694;2024-01-10T11:52:33;118.10;;;54.45;;
25824;SDS011;13658;44.534;18.694;2024-01-10T11:55:04;158.77;;;68.43;;
25824;SDS011;13658;44.534;18.694;2024-01-10T11:57:33;163.32;;;68.60;;
25824;SDS011;13658;44.534;18.694;2024-01-10T12:00:02;168.23;;;73.78;;
25824;SDS011;13658;44.534;18.694;2024-01-10T12:02:31;170.25;;;71.57;;
25824;SDS011;13658;44.534;18.694;2024-01-10T12:04:57;166.98;;;71.72;;
25824;SDS011;13658;44.534;18.694;2024-01-10T12:07:23;182.57;;;76.20;;
25824;SDS011;13658;44.534;18.694;2024-01-10T12:09:50;179.88;;;75.60;;
25824;SDS011;13658;44.534;18.694;2024-01-10T12:12:16;175.13;;;74.30;;
25824;SDS011;13658;44.534;18.694;2024-01-10T12:14:42;192.63;;;78.65;;
25824;SDS011;13658;44.534;18.694;2024-01-10T12:17:12;167.70;;;72.07;;
25824;SDS011;13658;44.534;18.694;2024-01-10T12:19:38;173.35;;;69.85;;
25824;SDS011;13658;44.534;18.694;2024-01-10T12:22:07;163.15;;;67.43;;
25824;SDS011;13658;44.534;18.694;2024-01-10T12:24:45;163.90;;;68.53;;
25824;SDS011;13658;44.534;18.694;2024-01-10T12:27:17;170.82;;;69.18;;
25824;SDS011;13658;44.534;18.694;2024-01-10T12:29:47;172.43;;;70.75;;
25824;SDS011;13658;44.534;18.694;2024-01-10T12:32:13;168.73;;;69.22;;
25824;SDS011;13658;44.534;18.694;2024-01-10T12:34:43;174.20;;;68.85;;
25824;SDS011;13658;44.534;18.694;2024-01-10T12:37:10;164.57;;;68.15;;
25824;SDS011;13658;44.534;18.694;2024-01-10T12:39:39;169.88;;;68.30;;
25824;SDS011;13658;44.534;18.694;2024-01-10T12:42:15;158.90;;;65.47;;
25824;SDS011;13658;44.534;18.694;2024-01-10T12:47:21;147.48;;;60.60;;
25824;SDS011;13658;44.534;18.694;2024-01-10T12:49:49;164.13;;;62.15;;
25824;SDS011;13658;44.534;18.694;2024-01-10T12:52:15;171.60;;;64.55;;
25824;SDS011;13658;44.534;18.694;2024-01-10T12:54:41;168.98;;;66.05;;
25824;SDS011;13658;44.534;18.694;2024-01-10T12:57:07;183.38;;;70.18;;
25824;SDS011;13658;44.534;18.694;2024-01-10T12:59:33;171.55;;;66.45;;
25824;SDS011;13658;44.534;18.694;2024-01-10T13:01:59;165.63;;;65.03;;
25824;SDS011;13658;44.534;18.694;2024-01-10T13:04:26;199.07;;;74.18;;
25824;SDS011;13658;44.534;18.694;2024-01-10T13:06:52;200.50;;;76.43;;
25824;SDS011;13658;44.534;18.694;2024-01-10T13:09:18;216.65;;;80.97;;
25824;SDS011;13658;44.534;18.694;2024-01-10T13:11:44;211.13;;;79.32;;
25824;SDS011;13658;44.534;18.694;2024-01-10T13:14:10;211.18;;;78.57;;
25824;SDS011;13658;44.534;18.694;2024-01-10T13:16:37;227.50;;;86.03;;
25824;SDS011;13658;44.534;18.694;2024-01-10T13:19:03;244.43;;;88.25;;
25824;SDS011;13658;44.534;18.694;2024-01-10T13:21:29;238.25;;;89.30;;
25824;SDS011;13658;44.534;18.694;2024-01-10T13:23:55;253.55;;;95.80;;
25824;SDS011;13658;44.534;18.694;2024-01-10T13:26:21;252.63;;;92.93;;
25824;SDS011;13658;44.534;18.694;2024-01-10T13:28:47;290.52;;;107.65;;
25824;SDS011;13658;44.534;18.694;2024-01-10T13:31:14;286.67;;;98.70;;
25824;SDS011;13658;44.534;18.694;2024-01-10T13:33:40;294.08;;;102.15;;
25824;SDS011;13658;44.534;18.694;2024-01-10T13:36:06;317.23;;;106.45;;
25824;SDS011;13658;44.534;18.694;2024-01-10T13:38:33;327.35;;;111.85;;
25824;SDS011;13658;44.534;18.694;2024-01-10T13:41:00;357.58;;;120.70;;
25824;SDS011;13658;44.534;18.694;2024-01-10T13:43:27;366.40;;;119.68;;
25824;SDS011;13658;44.534;18.694;2024-01-10T13:45:53;372.42;;;118.22;;
25824;SDS011;13658;44.534;18.694;2024-01-10T13:48:19;349.92;;;117.93;;
25824;SDS011;13658;44.534;18.694;2024-01-10T13:50:45;359.63;;;114.53;;
25824;SDS011;13658;44.534;18.694;2024-01-10T13:53:11;308.63;;;101.00;;
25824;SDS011;13658;44.534;18.694;2024-01-10T13:55:38;325.70;;;102.80;;
25824;SDS011;13658;44.534;18.694;2024-01-10T13:58:04;274.85;;;89.93;;
25824;SDS011;13658;44.534;18.694;2024-01-10T14:00:33;281.40;;;86.43;;
25824;SDS011;13658;44.534;18.694;2024-01-10T14:02:59;270.20;;;88.55;;
25824;SDS011;13658;44.534;18.694;2024-01-10T14:05:25;287.60;;;91.75;;
25824;SDS011;13658;44.534;18.694;2024-01-10T14:07:55;270.23;;;87.43;;
25824;SDS011;13658;44.534;18.694;2024-01-10T14:10:22;280.20;;;90.80;;
25824;SDS011;13658;44.534;18.694;2024-01-10T14:12:48;271.08;;;85.65;;
25824;SDS011;13658;44.534;18.694;2024-01-10T14:15:14;310.35;;;92.78;;
25824;SDS011;13658;44.534;18.694;2024-01-10T14:17:41;288.30;;;91.15;;
25824;SDS011;13658;44.534;18.694;2024-01-10T14:20:07;298.23;;;93.95;;
25824;SDS011;13658;44.534;18.694;2024-01-10T14:22:37;281.05;;;92.85;;